Time;durP1;ratioP1;P1;durP2;ratioP2;P2;SDS_P1;SDS_P2;PMS_P1;PMS_P2;Temp;Humidity;BMP_temperature;BMP_pressure;BME280_temperature;BME280_humidity;BME280_pressure;Samples;Min_cycle;Max_cycle;Signal;HPM_P1;HPM_P2
2022/01/01 00:00:34;;;;;;;98.30;33.25;;;;;;;;;;5082333;28;20044;-62
2022/01/01 00:03:01;;;;;;;95.25;30.23;;;;;;;;;;5098892;28;20084;-62
2022/01/01 00:05:27;;;;;;;95.78;28.92;;;;;;;;;;5081802;28;20058;-61
2022/01/01 00:07:53;;;;;;;90.53;28.27;;;;;;;;;;5079765;28;20518;-62
2022/01/01 00:10:21;;;;;;;90.63;24.35;;;;;;;;;;5081791;28;20511;-62
2022/01/01 00:12:47;;;;;;;100.57;25.17;;;;;;;;;;5084901;28;20140;-62
2022/01/01 00:15:14;;;;;;;108.00;25.80;;;;;;;;;;5085420;28;20062;-62
2022/01/01 00:17:41;;;;;;;100.60;25.83;;;;;;;;;;5080933;28;20430;-62
2022/01/01 00:20:09;;;;;;;107.97;26.77;;;;;;;;;;5083066;28;20101;-62
2022/01/01 00:22:36;;;;;;;99.18;28.52;;;;;;;;;;5085025;28;20341;-62
2022/01/01 00:25:03;;;;;;;96.53;26.02;;;;;;;;;;5089976;28;20131;-62
2022/01/01 00:27:29;;;;;;;83.63;25.30;;;;;;;;;;5082849;28;20468;-62
2022/01/01 00:29:55;;;;;;;106.85;28.65;;;;;;;;;;5080297;28;20079;-62
2022/01/01 00:32:21;;;;;;;88.18;27.55;;;;;;;;;;5086859;28;20409;-62
2022/01/01 00:34:50;;;;;;;104.45;26.52;;;;;;;;;;5078154;28;20066;-62
2022/01/01 00:37:16;;;;;;;90.50;27.27;;;;;;;;;;5079316;28;20442;-62
2022/01/01 00:39:42;;;;;;;95.13;25.90;;;;;;;;;;5079316;28;20051;-62
2022/01/01 00:42:08;;;;;;;94.15;25.58;;;;;;;;;;5076429;28;20373;-62
2022/01/01 00:44:35;;;;;;;93.40;23.95;;;;;;;;;;5089897;28;20433;-62
2022/01/01 00:47:01;;;;;;;77.10;24.10;;;;;;;;;;5084750;28;20047;-62
2022/01/01 00:49:27;;;;;;;83.32;24.45;;;;;;;;;;5081130;28;20056;-62
2022/01/01 00:51:54;;;;;;;105.85;24.77;;;;;;;;;;5080544;28;20392;-62
2022/01/01 00:54:20;;;;;;;91.15;25.25;;;;;;;;;;5076994;28;20850;-62
2022/01/01 00:56:46;;;;;;;107.88;25.33;;;;;;;;;;5084483;28;20050;-62
2022/01/01 00:59:12;;;;;;;89.22;26.80;;;;;;;;;;5079363;28;20039;-62
2022/01/01 01:01:38;;;;;;;98.35;27.00;;;;;;;;;;5082675;28;20047;-62
2022/01/01 01:04:05;;;;;;;90.68;27.38;;;;;;;;;;5084295;28;20056;-62
2022/01/01 01:06:31;;;;;;;92.72;27.40;;;;;;;;;;5081206;28;20041;-62
2022/01/01 01:08:59;;;;;;;101.07;28.02;;;;;;;;;;5086072;28;20062;-62
2022/01/01 01:11:26;;;;;;;108.05;28.05;;;;;;;;;;5089827;28;20067;-62
2022/01/01 01:13:58;;;;;;;93.63;24.42;;;;;;;;;;5084796;28;20396;-62
2022/01/01 01:16:25;;;;;;;92.97;25.08;;;;;;;;;;5081385;28;20196;-62
2022/01/01 01:18:53;;;;;;;100.00;24.77;;;;;;;;;;5084601;28;20070;-62
2022/01/01 01:21:20;;;;;;;94.70;25.25;;;;;;;;;;5082286;28;20077;-62
2022/01/01 01:23:47;;;;;;;90.43;25.67;;;;;;;;;;5085724;28;20077;-62
2022/01/01 01:26:13;;;;;;;91.85;26.83;;;;;;;;;;5080674;28;20439;-62
2022/01/01 01:28:46;;;;;;;101.80;27.10;;;;;;;;;;5082698;28;20383;-62
2022/01/01 01:31:12;;;;;;;96.38;25.08;;;;;;;;;;5084579;28;20048;-62
2022/01/01 01:33:38;;;;;;;92.10;24.50;;;;;;;;;;5082200;28;20051;-62
2022/01/01 01:36:05;;;;;;;89.45;27.20;;;;;;;;;;5080198;28;20044;-63
2022/01/01 01:38:36;;;;;;;89.10;24.98;;;;;;;;;;5076493;28;21965;-62
2022/01/01 01:41:02;;;;;;;91.43;25.00;;;;;;;;;;5081781;28;20087;-62
2022/01/01 01:43:28;;;;;;;96.72;26.15;;;;;;;;;;5078330;28;20043;-62
2022/01/01 01:45:55;;;;;;;105.80;26.60;;;;;;;;;;5075746;28;20036;-62
2022/01/01 01:48:21;;;;;;;115.38;27.67;;;;;;;;;;5083167;28;20115;-63
2022/01/01 01:50:47;;;;;;;115.03;29.00;;;;;;;;;;5082132;28;20063;-62
2022/01/01 01:53:13;;;;;;;121.65;30.17;;;;;;;;;;5082555;28;20049;-62
2022/01/01 01:55:39;;;;;;;113.63;29.67;;;;;;;;;;5084852;28;20040;-63
2022/01/01 01:58:06;;;;;;;126.68;32.47;;;;;;;;;;5086744;28;20052;-62
2022/01/01 02:03:10;;;;;;;133.65;33.83;;;;;;;;;;5084485;28;20069;-62
2022/01/01 02:05:38;;;;;;;125.75;34.63;;;;;;;;;;5083569;28;20399;-62
2022/01/01 02:08:04;;;;;;;117.65;35.22;;;;;;;;;;5076330;28;20048;-62
2022/01/01 02:10:32;;;;;;;126.07;38.78;;;;;;;;;;5078386;28;20047;-62
2022/01/01 02:12:58;;;;;;;142.35;40.38;;;;;;;;;;5083626;28;20051;-62
2022/01/01 02:15:40;;;;;;;150.77;40.88;;;;;;;;;;5082497;28;20040;-62
2022/01/01 02:18:06;;;;;;;138.75;41.05;;;;;;;;;;5083628;28;20041;-62
2022/01/01 02:20:32;;;;;;;147.27;43.72;;;;;;;;;;5080923;28;20043;-62
2022/01/01 02:23:00;;;;;;;155.88;48.30;;;;;;;;;;5082318;28;20046;-62
2022/01/01 02:25:27;;;;;;;179.07;47.50;;;;;;;;;;5082190;28;20442;-62
2022/01/01 02:27:54;;;;;;;174.43;50.80;;;;;;;;;;5078696;28;20066;-62
2022/01/01 02:30:20;;;;;;;169.88;55.38;;;;;;;;;;5078581;28;20040;-62
2022/01/01 02:32:46;;;;;;;201.15;57.55;;;;;;;;;;5091769;28;20071;-62
2022/01/01 02:35:14;;;;;;;204.70;60.28;;;;;;;;;;5076319;28;20089;-62
2022/01/01 02:37:40;;;;;;;183.98;61.42;;;;;;;;;;5078226;28;20479;-62
2022/01/01 02:40:07;;;;;;;203.40;62.28;;;;;;;;;;5079822;28;20055;-62
2022/01/01 02:42:34;;;;;;;208.60;65.68;;;;;;;;;;5085194;28;20036;-62
2022/01/01 02:45:05;;;;;;;198.15;62.17;;;;;;;;;;5078178;28;20140;-62
2022/01/01 02:47:32;;;;;;;192.63;66.60;;;;;;;;;;5078238;28;20115;-62
2022/01/01 02:49:58;;;;;;;205.70;65.88;;;;;;;;;;5076679;28;20105;-62
2022/01/01 02:52:24;;;;;;;190.48;65.50;;;;;;;;;;5078583;28;20079;-62
2022/01/01 02:54:50;;;;;;;191.55;62.92;;;;;;;;;;5082802;28;20072;-63
2022/01/01 02:57:17;;;;;;;187.38;59.13;;;;;;;;;;5083787;28;20040;-62
2022/01/01 02:59:43;;;;;;;202.77;61.20;;;;;;;;;;5082949;28;20149;-62
2022/01/01 03:02:09;;;;;;;170.98;53.45;;;;;;;;;;5082916;28;20072;-62
2022/01/01 03:04:35;;;;;;;172.95;51.85;;;;;;;;;;5077270;28;20055;-62
2022/01/01 03:07:01;;;;;;;156.82;51.08;;;;;;;;;;5081040;28;20036;-62
2022/01/01 03:09:34;;;;;;;169.55;48.65;;;;;;;;;;5082102;28;20099;-62
2022/01/01 03:12:03;;;;;;;162.97;48.73;;;;;;;;;;5080635;28;20047;-62
2022/01/01 03:14:29;;;;;;;161.88;46.92;;;;;;;;;;5082738;28;20286;-62
2022/01/01 03:16:55;;;;;;;157.20;46.60;;;;;;;;;;5079846;28;20036;-62
2022/01/01 03:19:22;;;;;;;158.95;44.20;;;;;;;;;;5081426;28;20072;-62
2022/01/01 03:21:48;;;;;;;161.23;44.67;;;;;;;;;;5093991;28;20086;-62
2022/01/01 03:24:14;;;;;;;157.20;42.47;;;;;;;;;;5082394;28;20483;-62
2022/01/01 03:26:40;;;;;;;140.73;41.60;;;;;;;;;;5082798;28;20394;-62
2022/01/01 03:29:06;;;;;;;144.55;39.85;;;;;;;;;;5088433;28;20258;-62
2022/01/01 03:31:33;;;;;;;143.77;40.83;;;;;;;;;;5086345;28;20035;-62
2022/01/01 03:33:59;;;;;;;170.95;42.75;;;;;;;;;;5086806;28;20040;-62
2022/01/01 03:36:26;;;;;;;162.98;42.08;;;;;;;;;;5086481;28;20036;-62
2022/01/01 03:38:52;;;;;;;175.70;44.90;;;;;;;;;;5091044;28;20071;-62
2022/01/01 03:41:18;;;;;;;172.27;46.22;;;;;;;;;;5083002;28;20044;-62
2022/01/01 03:43:45;;;;;;;178.43;46.58;;;;;;;;;;5098923;28;20133;-62
2022/01/01 03:46:11;;;;;;;175.23;47.50;;;;;;;;;;5082778;28;20054;-63
2022/01/01 03:48:37;;;;;;;181.63;49.75;;;;;;;;;;5087735;28;20052;-62
2022/01/01 03:51:03;;;;;;;183.05;48.83;;;;;;;;;;5083456;28;20048;-62
2022/01/01 03:53:29;;;;;;;192.45;50.60;;;;;;;;;;5085673;28;20086;-62
2022/01/01 03:55:55;;;;;;;186.15;49.55;;;;;;;;;;5080596;28;20044;-62
2022/01/01 03:58:22;;;;;;;182.95;51.05;;;;;;;;;;5079583;28;20071;-62
2022/01/01 04:00:48;;;;;;;195.13;50.80;;;;;;;;;;5081897;28;20052;-62
2022/01/01 04:03:18;;;;;;;202.55;52.97;;;;;;;;;;5081685;28;20043;-62
2022/01/01 04:05:45;;;;;;;221.05;53.28;;;;;;;;;;5086076;28;20072;-63
2022/01/01 04:08:11;;;;;;;211.82;51.20;;;;;;;;;;5086133;28;20385;-62
2022/01/01 04:10:38;;;;;;;205.60;53.85;;;;;;;;;;5082053;28;20060;-63
2022/01/01 04:13:05;;;;;;;223.10;55.85;;;;;;;;;;5086856;28;20040;-62
2022/01/01 04:15:32;;;;;;;243.23;57.70;;;;;;;;;;5086109;28;20036;-62
2022/01/01 04:18:03;;;;;;;237.43;57.17;;;;;;;;;;5085369;28;20415;-62
2022/01/01 04:20:29;;;;;;;268.90;57.50;;;;;;;;;;5083034;28;20060;-62
2022/01/01 04:22:56;;;;;;;267.25;56.17;;;;;;;;;;5085052;28;20052;-62
2022/01/01 04:25:22;;;;;;;245.35;58.63;;;;;;;;;;5082698;28;20036;-62
2022/01/01 04:27:49;;;;;;;250.38;58.15;;;;;;;;;;5082770;28;20041;-62
2022/01/01 04:30:15;;;;;;;220.35;54.92;;;;;;;;;;5083515;28;20048;-62
2022/01/01 04:32:41;;;;;;;230.55;55.67;;;;;;;;;;5084025;28;20040;-62
2022/01/01 04:35:08;;;;;;;201.82;50.78;;;;;;;;;;5083105;28;20079;-62
2022/01/01 04:37:34;;;;;;;209.20;50.50;;;;;;;;;;5077602;28;20097;-63
2022/01/01 04:40:00;;;;;;;188.85;50.42;;;;;;;;;;5094274;28;20744;-62
2022/01/01 04:42:27;;;;;;;181.73;48.92;;;;;;;;;;5085892;28;20071;-62
2022/01/01 04:44:53;;;;;;;149.90;45.78;;;;;;;;;;5084336;28;20036;-62
2022/01/01 04:47:20;;;;;;;171.10;45.00;;;;;;;;;;5082151;28;20463;-63
2022/01/01 04:49:46;;;;;;;160.68;45.47;;;;;;;;;;5086249;28;20048;-62
2022/01/01 04:52:12;;;;;;;161.48;47.58;;;;;;;;;;5086944;28;20098;-62
2022/01/01 04:54:41;;;;;;;197.35;50.33;;;;;;;;;;5084375;28;20043;-62
2022/01/01 04:57:08;;;;;;;208.02;52.75;;;;;;;;;;5086132;28;20048;-62
2022/01/01 04:59:34;;;;;;;208.05;52.67;;;;;;;;;;5093997;28;20124;-63
2022/01/01 05:02:00;;;;;;;251.50;57.25;;;;;;;;;;5093988;28;20048;-63
2022/01/01 05:04:28;;;;;;;244.77;56.47;;;;;;;;;;5091067;28;20040;-62
2022/01/01 05:06:54;;;;;;;252.27;55.90;;;;;;;;;;5083017;28;20045;-62
2022/01/01 05:09:20;;;;;;;270.67;56.40;;;;;;;;;;5080704;28;20068;-62
2022/01/01 05:11:47;;;;;;;238.18;54.63;;;;;;;;;;5087824;28;20044;-62
2022/01/01 05:14:13;;;;;;;257.70;50.25;;;;;;;;;;5088947;28;20080;-63
2022/01/01 05:16:40;;;;;;;270.20;51.30;;;;;;;;;;5088592;28;20040;-63
2022/01/01 05:19:06;;;;;;;273.77;53.03;;;;;;;;;;5081304;28;20032;-63
2022/01/01 05:21:35;;;;;;;333.55;54.00;;;;;;;;;;5087968;28;20043;-63
2022/01/01 05:24:01;;;;;;;319.08;52.42;;;;;;;;;;5087420;28;20414;-62
2022/01/01 05:26:27;;;;;;;290.67;50.65;;;;;;;;;;5087435;28;20105;-63
2022/01/01 05:28:53;;;;;;;279.52;52.28;;;;;;;;;;5080567;28;20048;-63
2022/01/01 05:31:20;;;;;;;282.23;49.75;;;;;;;;;;5086897;28;20487;-62
2022/01/01 05:33:46;;;;;;;279.52;47.45;;;;;;;;;;5082491;28;20088;-62
2022/01/01 05:36:13;;;;;;;300.63;45.78;;;;;;;;;;5076748;28;20085;-62
2022/01/01 05:38:39;;;;;;;322.30;47.80;;;;;;;;;;5083835;28;20100;-62
2022/01/01 05:41:05;;;;;;;316.70;47.47;;;;;;;;;;5087946;28;20040;-62
2022/01/01 05:43:31;;;;;;;270.70;46.17;;;;;;;;;;5081995;28;20036;-62
2022/01/01 05:45:58;;;;;;;239.57;46.65;;;;;;;;;;5083279;28;20039;-62
2022/01/01 05:48:24;;;;;;;249.43;44.92;;;;;;;;;;5084949;28;20079;-63
2022/01/01 05:50:50;;;;;;;239.93;43.45;;;;;;;;;;5086704;28;20048;-62
2022/01/01 05:53:16;;;;;;;231.45;43.25;;;;;;;;;;5084150;28;20101;-62
2022/01/01 05:55:42;;;;;;;201.63;41.60;;;;;;;;;;5087078;28;20063;-62
2022/01/01 05:58:08;;;;;;;190.57;40.33;;;;;;;;;;5084828;28;20461;-62
2022/01/01 06:00:35;;;;;;;180.98;40.75;;;;;;;;;;5084635;28;20042;-62
2022/01/01 06:03:01;;;;;;;152.63;37.53;;;;;;;;;;5077786;28;20083;-62
2022/01/01 06:05:28;;;;;;;151.52;37.67;;;;;;;;;;5087372;28;20120;-63
2022/01/01 06:07:54;;;;;;;157.55;39.72;;;;;;;;;;5083250;28;20032;-62
2022/01/01 06:10:21;;;;;;;159.40;38.05;;;;;;;;;;5084029;28;20090;-62
2022/01/01 06:12:47;;;;;;;124.43;35.45;;;;;;;;;;5083291;28;20051;-62
2022/01/01 06:15:13;;;;;;;157.80;37.00;;;;;;;;;;5084203;28;20064;-62
2022/01/01 06:17:39;;;;;;;146.55;33.78;;;;;;;;;;5086245;28;20044;-63
2022/01/01 06:20:05;;;;;;;139.77;33.10;;;;;;;;;;5087566;28;20366;-62
2022/01/01 06:22:32;;;;;;;113.63;30.65;;;;;;;;;;5079487;28;20070;-62
2022/01/01 06:24:58;;;;;;;105.65;28.55;;;;;;;;;;5079148;28;20036;-62
2022/01/01 06:27:24;;;;;;;109.15;30.08;;;;;;;;;;5082437;28;20116;-62
2022/01/01 06:29:50;;;;;;;119.10;31.63;;;;;;;;;;5082131;28;20089;-62
2022/01/01 06:32:16;;;;;;;113.70;29.80;;;;;;;;;;5079780;28;20313;-62
2022/01/01 06:34:42;;;;;;;117.63;28.02;;;;;;;;;;5082772;28;20086;-62
2022/01/01 06:37:09;;;;;;;109.78;28.48;;;;;;;;;;5081165;28;20079;-62
2022/01/01 06:39:35;;;;;;;114.47;27.20;;;;;;;;;;5078549;28;20051;-62
2022/01/01 06:42:01;;;;;;;108.97;26.27;;;;;;;;;;5077090;28;20049;-62
2022/01/01 06:44:27;;;;;;;109.95;26.27;;;;;;;;;;5076711;28;20047;-63
2022/01/01 06:46:53;;;;;;;106.38;24.33;;;;;;;;;;5079997;28;20055;-62
2022/01/01 06:49:20;;;;;;;107.72;26.05;;;;;;;;;;5077948;28;20403;-62
2022/01/01 06:51:46;;;;;;;95.53;25.35;;;;;;;;;;5085010;28;20036;-62
2022/01/01 06:54:12;;;;;;;84.10;24.70;;;;;;;;;;5080719;28;20559;-62
2022/01/01 06:56:38;;;;;;;100.13;28.08;;;;;;;;;;5082780;28;20123;-62
2022/01/01 06:59:04;;;;;;;117.72;31.17;;;;;;;;;;5088030;28;20044;-62
2022/01/01 07:01:30;;;;;;;119.53;32.70;;;;;;;;;;5082406;28;20505;-63
2022/01/01 07:03:57;;;;;;;118.97;33.55;;;;;;;;;;5081687;28;20161;-62
2022/01/01 07:06:23;;;;;;;113.13;33.47;;;;;;;;;;5084919;28;20055;-62
2022/01/01 07:08:49;;;;;;;125.97;34.90;;;;;;;;;;5092071;28;20058;-62
2022/01/01 07:11:15;;;;;;;127.38;37.53;;;;;;;;;;5088110;28;20040;-62
2022/01/01 07:13:41;;;;;;;136.57;36.70;;;;;;;;;;5088258;28;20062;-62
2022/01/01 07:16:08;;;;;;;137.55;39.88;;;;;;;;;;5088576;28;20051;-62
2022/01/01 07:18:34;;;;;;;136.27;39.78;;;;;;;;;;5092405;28;20067;-62
2022/01/01 07:21:00;;;;;;;149.48;43.15;;;;;;;;;;5085498;28;20046;-62
2022/01/01 07:23:26;;;;;;;166.07;46.40;;;;;;;;;;5084246;28;20051;-63
2022/01/01 07:25:52;;;;;;;149.30;44.53;;;;;;;;;;5080875;28;20437;-64
2022/01/01 07:28:18;;;;;;;153.02;44.88;;;;;;;;;;5082289;28;20508;-63
2022/01/01 07:30:45;;;;;;;151.27;43.20;;;;;;;;;;5082899;28;20068;-64
2022/01/01 07:33:13;;;;;;;146.65;43.33;;;;;;;;;;5083249;28;20082;-64
2022/01/01 07:35:39;;;;;;;140.95;44.20;;;;;;;;;;5082310;28;20044;-64
2022/01/01 07:38:06;;;;;;;157.88;45.15;;;;;;;;;;5083145;28;20076;-64
2022/01/01 07:40:34;;;;;;;157.32;46.50;;;;;;;;;;5087750;28;20051;-64
2022/01/01 07:43:01;;;;;;;156.75;45.08;;;;;;;;;;5088278;28;20067;-64
2022/01/01 07:45:27;;;;;;;170.82;48.58;;;;;;;;;;5085767;28;20122;-64
2022/01/01 07:47:53;;;;;;;153.15;48.78;;;;;;;;;;5084007;28;20113;-63
2022/01/01 07:50:20;;;;;;;138.23;45.72;;;;;;;;;;5087536;28;20474;-64
2022/01/01 07:52:46;;;;;;;150.18;48.55;;;;;;;;;;5084574;28;20104;-64
2022/01/01 07:55:12;;;;;;;150.80;48.72;;;;;;;;;;5080314;28;20041;-64
2022/01/01 07:57:38;;;;;;;132.02;45.08;;;;;;;;;;5086576;28;20037;-64
2022/01/01 08:00:07;;;;;;;150.63;48.80;;;;;;;;;;5088633;28;20150;-64
2022/01/01 08:02:38;;;;;;;145.07;48.58;;;;;;;;;;5078477;28;20040;-64
2022/01/01 08:05:04;;;;;;;121.18;45.55;;;;;;;;;;5090423;28;20815;-65
2022/01/01 08:07:31;;;;;;;130.52;44.10;;;;;;;;;;5084935;28;20044;-64
2022/01/01 08:09:57;;;;;;;134.73;44.25;;;;;;;;;;5089150;28;20052;-64
2022/01/01 08:12:23;;;;;;;118.28;40.40;;;;;;;;;;5087170;28;20479;-64
2022/01/01 08:14:49;;;;;;;116.05;40.35;;;;;;;;;;5086446;28;20050;-64
2022/01/01 08:17:15;;;;;;;116.45;40.50;;;;;;;;;;5081695;28;20126;-64
2022/01/01 08:19:42;;;;;;;117.60;41.20;;;;;;;;;;5085611;28;20051;-62
2022/01/01 08:22:10;;;;;;;112.30;39.50;;;;;;;;;;5083978;27;20045;-62
2022/01/01 08:24:36;;;;;;;121.53;43.80;;;;;;;;;;5085802;28;20052;-62
2022/01/01 08:27:02;;;;;;;110.53;42.88;;;;;;;;;;5086329;28;20048;-62
2022/01/01 08:29:29;;;;;;;103.25;40.00;;;;;;;;;;5085148;28;20056;-62
2022/01/01 08:31:56;;;;;;;100.72;38.72;;;;;;;;;;5083383;28;20105;-62
2022/01/01 08:34:22;;;;;;;102.53;40.53;;;;;;;;;;5080060;28;20044;-62
2022/01/01 08:36:49;;;;;;;113.53;39.15;;;;;;;;;;5088459;28;20048;-62
2022/01/01 08:39:15;;;;;;;98.05;37.90;;;;;;;;;;5078315;28;20047;-62
2022/01/01 08:41:42;;;;;;;91.97;35.10;;;;;;;;;;5087002;28;20047;-62
2022/01/01 08:44:08;;;;;;;83.75;34.17;;;;;;;;;;5083660;28;20044;-62
2022/01/01 08:46:34;;;;;;;98.45;36.50;;;;;;;;;;5087705;28;20040;-62
2022/01/01 08:49:02;;;;;;;93.57;36.13;;;;;;;;;;5086956;28;20052;-63
2022/01/01 08:51:29;;;;;;;101.90;35.80;;;;;;;;;;5089031;28;20063;-62
2022/01/01 08:53:56;;;;;;;99.10;35.90;;;;;;;;;;5087080;28;20139;-62
2022/01/01 08:56:22;;;;;;;86.45;35.88;;;;;;;;;;5094607;28;20047;-63
2022/01/01 08:58:49;;;;;;;95.45;35.45;;;;;;;;;;5085340;28;20040;-62
2022/01/01 09:01:15;;;;;;;96.00;35.85;;;;;;;;;;5084095;28;20097;-63
2022/01/01 09:03:42;;;;;;;98.45;36.95;;;;;;;;;;5081112;28;20494;-62
2022/01/01 09:06:08;;;;;;;83.40;35.70;;;;;;;;;;5089396;28;20368;-62
2022/01/01 09:08:36;;;;;;;85.55;36.70;;;;;;;;;;5084394;28;20425;-62
2022/01/01 09:11:02;;;;;;;82.70;33.50;;;;;;;;;;5087438;28;20403;-62
2022/01/01 09:13:29;;;;;;;83.82;31.30;;;;;;;;;;5088400;28;20035;-64
2022/01/01 09:15:55;;;;;;;79.05;32.03;;;;;;;;;;5082458;28;20086;-63
2022/01/01 09:18:21;;;;;;;77.03;28.95;;;;;;;;;;5090056;28;20039;-62
2022/01/01 09:20:48;;;;;;;76.85;31.42;;;;;;;;;;5075975;28;20053;-62
2022/01/01 09:23:15;;;;;;;67.07;29.05;;;;;;;;;;5089999;28;20044;-64
2022/01/01 09:25:41;;;;;;;62.67;28.13;;;;;;;;;;5085383;28;20045;-62
2022/01/01 09:28:07;;;;;;;63.40;28.92;;;;;;;;;;5080789;28;20145;-61
2022/01/01 09:30:34;;;;;;;69.38;28.42;;;;;;;;;;5074790;28;20114;-62
2022/01/01 09:33:00;;;;;;;63.30;27.23;;;;;;;;;;5076216;28;20048;-62
2022/01/01 09:35:26;;;;;;;63.15;27.20;;;;;;;;;;5074726;28;20186;-62
2022/01/01 09:37:52;;;;;;;56.10;24.88;;;;;;;;;;5075779;28;20365;-62
2022/01/01 09:40:19;;;;;;;64.38;25.88;;;;;;;;;;5086213;28;20036;-62
2022/01/01 09:42:46;;;;;;;65.85;24.90;;;;;;;;;;5085242;28;20047;-62
2022/01/01 09:45:12;;;;;;;55.47;23.98;;;;;;;;;;5075891;28;20109;-62
2022/01/01 09:47:38;;;;;;;52.05;22.23;;;;;;;;;;5075087;28;20035;-62
2022/01/01 09:50:06;;;;;;;62.85;22.38;;;;;;;;;;5074476;28;20059;-62
2022/01/01 09:52:33;;;;;;;59.47;23.23;;;;;;;;;;5080568;28;20036;-62
2022/01/01 09:54:59;;;;;;;46.22;20.38;;;;;;;;;;5089025;28;20052;-62
2022/01/01 09:57:25;;;;;;;40.47;19.40;;;;;;;;;;5076846;28;20056;-62
2022/01/01 09:59:51;;;;;;;51.80;21.15;;;;;;;;;;5081800;28;20089;-62
2022/01/01 10:02:17;;;;;;;54.78;22.50;;;;;;;;;;5081363;28;20175;-62
2022/01/01 10:04:47;;;;;;;49.53;21.73;;;;;;;;;;5070254;28;20044;-62
2022/01/01 10:07:13;;;;;;;51.97;21.58;;;;;;;;;;5082290;28;20053;-62
2022/01/01 10:09:40;;;;;;;57.03;22.95;;;;;;;;;;5085362;28;20442;-62
2022/01/01 10:12:09;;;;;;;59.00;24.27;;;;;;;;;;5080518;28;20040;-62
2022/01/01 10:14:36;;;;;;;55.55;25.55;;;;;;;;;;5082962;28;20499;-62
2022/01/01 10:17:20;;;;;;;52.35;23.00;;;;;;;;;;5079500;28;20041;-62
2022/01/01 10:19:46;;;;;;;54.60;23.95;;;;;;;;;;5086000;28;20488;-62
2022/01/01 10:22:14;;;;;;;47.25;21.25;;;;;;;;;;5082361;28;20126;-62
2022/01/01 10:27:43;;;;;;;55.58;22.80;;;;;;;;;;5081894;28;20044;-62
2022/01/01 10:30:17;;;;;;;42.70;19.17;;;;;;;;;;5098849;28;20052;-62
2022/01/01 10:32:59;;;;;;;41.05;19.63;;;;;;;;;;5077683;28;20503;-62
2022/01/01 10:35:26;;;;;;;44.10;18.80;;;;;;;;;;5080713;28;20159;-62
2022/01/01 10:37:52;;;;;;;41.67;17.25;;;;;;;;;;5082139;28;20489;-62
2022/01/01 10:40:25;;;;;;;46.90;18.65;;;;;;;;;;5087395;28;20047;-62
2022/01/01 10:42:52;;;;;;;46.13;17.38;;;;;;;;;;5074025;28;20040;-62
2022/01/01 10:45:32;;;;;;;30.67;15.00;;;;;;;;;;5074914;28;20129;-62
2022/01/01 10:48:05;;;;;;;35.65;15.32;;;;;;;;;;5073956;28;20044;-62
2022/01/01 10:50:32;;;;;;;41.50;15.48;;;;;;;;;;5101729;28;20059;-62
2022/01/01 10:53:09;;;;;;;36.17;15.43;;;;;;;;;;5086613;28;20048;-62
2022/01/01 10:55:35;;;;;;;38.80;14.63;;;;;;;;;;5086890;28;20085;-62
2022/01/01 10:58:03;;;;;;;35.28;15.50;;;;;;;;;;5085858;28;20045;-62
2022/01/01 11:00:29;;;;;;;34.88;14.32;;;;;;;;;;5087804;28;20039;-62
2022/01/01 11:02:56;;;;;;;32.97;14.48;;;;;;;;;;5073773;28;20048;-63
2022/01/01 11:05:27;;;;;;;37.63;13.75;;;;;;;;;;5074383;28;20036;-62
2022/01/01 11:07:53;;;;;;;34.08;14.10;;;;;;;;;;5073312;28;20112;-62
2022/01/01 11:10:21;;;;;;;35.50;13.77;;;;;;;;;;5073474;28;20064;-62
2022/01/01 11:12:47;;;;;;;32.30;13.20;;;;;;;;;;5074001;28;20068;-62
2022/01/01 11:15:13;;;;;;;32.35;14.40;;;;;;;;;;5074132;28;20431;-62
2022/01/01 11:17:40;;;;;;;30.45;13.05;;;;;;;;;;5073395;28;20094;-62
2022/01/01 11:20:07;;;;;;;32.92;13.88;;;;;;;;;;5073700;28;20040;-62
2022/01/01 11:22:33;;;;;;;27.05;13.88;;;;;;;;;;5073863;28;20102;-62
2022/01/01 11:25:00;;;;;;;36.00;13.40;;;;;;;;;;5073081;28;20056;-62
2022/01/01 11:27:26;;;;;;;30.02;13.95;;;;;;;;;;5073680;28;20271;-62
2022/01/01 11:29:54;;;;;;;30.48;13.77;;;;;;;;;;5073811;28;20364;-62
2022/01/01 11:32:30;;;;;;;31.00;13.38;;;;;;;;;;5074598;28;20381;-62
2022/01/01 11:34:56;;;;;;;29.85;13.60;;;;;;;;;;5073128;28;20464;-62
2022/01/01 11:37:22;;;;;;;41.42;12.95;;;;;;;;;;5072497;28;20059;-62
2022/01/01 11:39:54;;;;;;;33.60;13.52;;;;;;;;;;5072231;28;20064;-62
2022/01/01 11:42:20;;;;;;;32.20;14.57;;;;;;;;;;5086772;28;20049;-63
2022/01/01 11:44:54;;;;;;;30.77;12.52;;;;;;;;;;5076779;28;20044;-62
2022/01/01 11:47:22;;;;;;;31.23;12.68;;;;;;;;;;5076779;28;20052;-62
2022/01/01 11:49:48;;;;;;;32.40;12.98;;;;;;;;;;5079320;28;20234;-62
2022/01/01 11:52:34;;;;;;;31.40;13.85;;;;;;;;;;5089922;28;20439;-62
2022/01/01 11:55:01;;;;;;;31.85;13.60;;;;;;;;;;5077525;28;20124;-62
2022/01/01 11:57:29;;;;;;;30.23;13.93;;;;;;;;;;5083512;28;20523;-62
2022/01/01 12:00:01;;;;;;;29.25;13.35;;;;;;;;;;5090849;28;20093;-62
2022/01/01 12:02:27;;;;;;;23.13;12.18;;;;;;;;;;5077742;28;20392;-62
2022/01/01 12:04:55;;;;;;;27.02;12.50;;;;;;;;;;5085241;28;20040;-62
2022/01/01 12:07:22;;;;;;;33.05;12.57;;;;;;;;;;5077968;28;20037;-62
2022/01/01 12:09:56;;;;;;;26.08;12.63;;;;;;;;;;5077459;28;20134;-62
2022/01/01 12:12:36;;;;;;;28.80;12.88;;;;;;;;;;5078064;28;20392;-62
2022/01/01 12:15:02;;;;;;;21.23;10.85;;;;;;;;;;5085505;28;20048;-62
2022/01/01 12:17:28;;;;;;;23.90;10.80;;;;;;;;;;5082380;28;20044;-62
2022/01/01 12:19:55;;;;;;;29.25;11.35;;;;;;;;;;5081089;28;20476;-62
2022/01/01 12:22:24;;;;;;;28.40;9.98;;;;;;;;;;5082214;28;20036;-62
2022/01/01 12:24:52;;;;;;;19.55;10.02;;;;;;;;;;5086345;28;20040;-62
2022/01/01 12:27:19;;;;;;;26.23;10.57;;;;;;;;;;5087507;28;20054;-62
2022/01/01 12:29:45;;;;;;;25.75;10.45;;;;;;;;;;5092674;28;20107;-63
2022/01/01 12:32:11;;;;;;;20.35;10.27;;;;;;;;;;5089615;28;20484;-63
2022/01/01 12:34:37;;;;;;;23.70;10.15;;;;;;;;;;5088667;28;20119;-63
2022/01/01 12:37:05;;;;;;;26.70;10.23;;;;;;;;;;5080562;28;20185;-62
2022/01/01 12:39:52;;;;;;;26.55;10.23;;;;;;;;;;5086163;28;20436;-63
2022/01/01 12:42:31;;;;;;;21.65;9.98;;;;;;;;;;5083157;28;20040;-63
2022/01/01 12:44:59;;;;;;;23.65;9.18;;;;;;;;;;5078547;28;20139;-63
2022/01/01 12:47:28;;;;;;;17.60;9.45;;;;;;;;;;5078834;28;20054;-63
2022/01/01 12:49:57;;;;;;;25.48;8.90;;;;;;;;;;5076719;28;20060;-63
2022/01/01 12:52:23;;;;;;;21.77;9.77;;;;;;;;;;5079851;28;20044;-62
2022/01/01 12:54:49;;;;;;;20.88;10.07;;;;;;;;;;5079441;28;20041;-62
2022/01/01 12:57:19;;;;;;;20.40;10.25;;;;;;;;;;5076235;28;20033;-63
2022/01/01 12:59:48;;;;;;;22.15;10.93;;;;;;;;;;5083069;28;20119;-63
2022/01/01 13:02:14;;;;;;;21.48;9.60;;;;;;;;;;5076457;28;20484;-63
2022/01/01 13:04:41;;;;;;;24.05;10.60;;;;;;;;;;5091765;28;20045;-63
2022/01/01 13:07:07;;;;;;;18.40;9.27;;;;;;;;;;5078330;28;20104;-64
2022/01/01 13:09:34;;;;;;;21.90;9.70;;;;;;;;;;5085197;28;20059;-62
2022/01/01 13:12:02;;;;;;;24.70;11.82;;;;;;;;;;5082376;28;20062;-63
2022/01/01 13:14:29;;;;;;;19.92;10.90;;;;;;;;;;5083557;28;20051;-62
2022/01/01 13:16:55;;;;;;;23.52;10.77;;;;;;;;;;5082762;28;20105;-62
2022/01/01 13:19:21;;;;;;;17.90;10.35;;;;;;;;;;5087971;28;20063;-62
2022/01/01 13:21:48;;;;;;;23.45;10.75;;;;;;;;;;5086857;28;20124;-62
2022/01/01 13:24:16;;;;;;;26.45;11.82;;;;;;;;;;5088048;28;20130;-62
2022/01/01 13:26:44;;;;;;;18.92;10.45;;;;;;;;;;5080596;28;20037;-62
2022/01/01 13:29:10;;;;;;;26.52;11.98;;;;;;;;;;5086740;28;20368;-62
2022/01/01 13:31:37;;;;;;;25.38;11.50;;;;;;;;;;5076066;28;20076;-63
2022/01/01 13:34:04;;;;;;;22.23;11.70;;;;;;;;;;5085326;28;20044;-62
2022/01/01 13:36:32;;;;;;;27.42;12.35;;;;;;;;;;5084624;28;20085;-62
2022/01/01 13:38:59;;;;;;;24.05;12.23;;;;;;;;;;5081500;28;20484;-62
2022/01/01 13:41:32;;;;;;;23.00;11.30;;;;;;;;;;5084095;28;20387;-62
2022/01/01 13:43:59;;;;;;;21.70;11.45;;;;;;;;;;5078488;28;20048;-62
2022/01/01 13:46:30;;;;;;;24.33;11.15;;;;;;;;;;5086618;28;20074;-62
2022/01/01 13:48:58;;;;;;;22.15;10.35;;;;;;;;;;5085710;28;20079;-63
2022/01/01 13:51:25;;;;;;;25.02;12.50;;;;;;;;;;5087151;28;20168;-62
2022/01/01 13:54:02;;;;;;;19.00;10.82;;;;;;;;;;5076852;28;20049;-62
2022/01/01 13:56:29;;;;;;;20.27;10.77;;;;;;;;;;5075110;28;20092;-61
2022/01/01 13:58:56;;;;;;;27.80;11.35;;;;;;;;;;5082349;28;20059;-62
2022/01/01 14:01:23;;;;;;;19.40;10.73;;;;;;;;;;5073163;28;20047;-62
2022/01/01 14:03:50;;;;;;;23.60;11.68;;;;;;;;;;5078470;28;20488;-62
2022/01/01 14:06:24;;;;;;;20.98;11.63;;;;;;;;;;5078768;28;20126;-62
2022/01/01 14:08:57;;;;;;;23.58;12.60;;;;;;;;;;5075632;28;20123;-62
2022/01/01 14:11:31;;;;;;;25.55;11.75;;;;;;;;;;5075050;28;20044;-62
2022/01/01 14:14:15;;;;;;;23.00;12.20;;;;;;;;;;5074726;28;20459;-62
2022/01/01 14:16:48;;;;;;;21.23;11.68;;;;;;;;;;5073699;28;20044;-62